createdAt,value
2023-03-06T00:01:01.295Z,9.82
2023-03-06T00:04:03.002Z,11.05
2023-03-06T00:07:04.696Z,8.63
2023-03-06T00:10:07.016Z,11.05
2023-03-06T00:13:14.030Z,13.48
2023-03-06T00:16:15.656Z,11.48
2023-03-06T00:19:17.337Z,11.35
2023-03-06T00:22:19.079Z,12.88
2023-03-06T00:25:21.580Z,11.90
2023-03-06T00:28:23.484Z,11.63
2023-03-06T00:31:25.224Z,9.25
2023-03-06T00:34:27.199Z,13.40
2023-03-06T00:37:28.827Z,11.20
2023-03-06T00:40:30.471Z,12.65
2023-03-06T00:43:32.135Z,11.12
2023-03-06T00:46:33.775Z,13.30
2023-03-06T00:49:35.657Z,9.02
2023-03-06T00:52:37.422Z,10.75
2023-03-06T00:55:39.075Z,18.52
2023-03-06T00:58:40.800Z,11.82
2023-03-06T01:01:42.480Z,14.93
2023-03-06T01:04:44.324Z,11.30
2023-03-06T01:07:46.062Z,13.43
2023-03-06T01:10:47.694Z,13.38
2023-03-06T01:13:49.744Z,10.48
2023-03-06T01:16:51.471Z,10.95
2023-03-06T01:19:53.127Z,10.20
2023-03-06T01:22:56.637Z,11.77
2023-03-06T01:25:59.086Z,10.20
2023-03-06T01:29:01.322Z,9.68
2023-03-06T01:32:03.084Z,10.15
2023-03-06T01:35:05.630Z,13.05
2023-03-06T01:38:07.370Z,11.88
2023-03-06T01:41:10.958Z,13.62
2023-03-06T01:44:13.800Z,9.85
2023-03-06T01:47:15.532Z,13.85
2023-03-06T01:50:17.343Z,10.57
2023-03-06T01:53:20.186Z,13.45
2023-03-06T01:56:22.968Z,18.30
2023-03-06T01:59:27.009Z,13.15
2023-03-06T02:02:29.019Z,10.20
2023-03-06T02:05:31.211Z,11.68
2023-03-06T02:08:33.499Z,7.90
2023-03-06T02:11:35.153Z,11.38
2023-03-06T02:14:38.188Z,11.15
2023-03-06T02:17:41.705Z,10.15
2023-03-06T02:21:00.448Z,11.85
2023-03-06T02:24:17.361Z,11.48
2023-03-06T02:27:19.983Z,12.65
2023-03-06T02:30:23.690Z,11.32
2023-03-06T02:33:29.342Z,11.35
2023-03-06T02:36:32.660Z,12.82
2023-03-06T02:39:38.201Z,9.57
2023-03-06T02:42:47.223Z,8.70
2023-03-06T02:45:51.310Z,13.13
2023-03-06T02:48:53.210Z,10.05
2023-03-06T02:51:54.905Z,12.37
2023-03-06T02:54:56.690Z,13.68
2023-03-06T02:57:58.512Z,13.40
2023-03-06T03:01:00.220Z,14.82
2023-03-06T03:04:01.861Z,12.40
2023-03-06T03:07:03.566Z,11.75
2023-03-06T03:10:05.648Z,11.77
2023-03-06T03:13:07.291Z,11.73
2023-03-06T03:16:14.180Z,8.75
2023-03-06T03:19:15.818Z,10.50
2023-03-06T03:22:18.506Z,9.82
2023-03-06T03:25:20.745Z,10.77
2023-03-06T03:28:22.389Z,13.27
2023-03-06T03:31:24.252Z,10.25
2023-03-06T03:34:26.237Z,9.18
2023-03-06T03:37:28.037Z,19.70
2023-03-06T03:40:29.796Z,10.43
2023-03-06T03:43:32.189Z,10.77
2023-03-06T03:46:33.966Z,11.43
2023-03-06T03:49:35.638Z,12.13
2023-03-06T03:52:37.399Z,13.73
2023-03-06T03:55:39.448Z,11.15
2023-03-06T03:58:41.117Z,10.40
2023-03-06T04:01:42.829Z,13.43
2023-03-06T04:04:44.538Z,10.40
2023-03-06T04:07:46.377Z,15.35
2023-03-06T04:10:48.044Z,13.32
2023-03-06T04:13:49.686Z,15.63
2023-03-06T04:16:51.363Z,11.52
2023-03-06T04:19:53.179Z,10.35
2023-03-06T04:22:54.790Z,11.02
2023-03-06T04:25:56.476Z,9.80
2023-03-06T04:28:58.660Z,12.10
2023-03-06T04:32:00.340Z,12.20
2023-03-06T04:35:02.356Z,9.60
2023-03-06T04:38:04.528Z,9.25
2023-03-06T04:41:06.161Z,9.45
2023-03-06T04:44:08.622Z,10.63
2023-03-06T04:47:11.236Z,14.55
2023-03-06T04:50:13.270Z,13.02
2023-03-06T04:53:16.787Z,11.63
2023-03-06T04:56:18.864Z,10.50
2023-03-06T04:59:20.565Z,15.00
2023-03-06T05:02:24.290Z,23.92
2023-03-06T05:05:26.698Z,19.00
2023-03-06T05:08:28.527Z,13.52
2023-03-06T05:11:30.539Z,14.13
2023-03-06T05:14:32.305Z,14.30
2023-03-06T05:17:34.182Z,18.50
2023-03-06T05:20:35.809Z,21.77
2023-03-06T05:23:41.106Z,28.15
2023-03-06T05:26:42.756Z,40.10
2023-03-06T05:29:44.495Z,25.60
2023-03-06T05:32:46.212Z,22.27
2023-03-06T05:35:48.822Z,16.70
2023-03-06T05:38:50.500Z,26.20
2023-03-06T05:41:52.134Z,17.52
2023-03-06T05:44:53.794Z,13.38
2023-03-06T05:47:55.431Z,13.13
2023-03-06T05:50:58.348Z,11.02
2023-03-06T05:53:59.982Z,20.88
2023-03-06T05:57:02.138Z,28.50
2023-03-06T06:00:04.474Z,23.15
2023-03-06T06:03:06.138Z,15.43
2023-03-06T06:06:09.772Z,11.77
2023-03-06T06:09:13.849Z,13.18
2023-03-06T06:12:15.677Z,15.40
2023-03-06T06:15:17.421Z,10.30
2023-03-06T06:18:19.118Z,10.10
2023-03-06T06:21:21.046Z,16.08
2023-03-06T06:24:25.124Z,13.50
2023-03-06T06:27:26.816Z,12.48
2023-03-06T06:30:28.579Z,10.80
2023-03-06T06:33:30.239Z,15.15
2023-03-06T06:36:32.510Z,11.57
2023-03-06T06:39:34.141Z,18.15
2023-03-06T06:42:39.909Z,11.45
2023-03-06T06:45:44.215Z,10.60
2023-03-06T06:48:49.349Z,13.15
2023-03-06T06:51:50.985Z,11.63
2023-03-06T06:54:53.171Z,13.20
2023-03-06T06:57:54.836Z,10.07
2023-03-06T07:00:56.492Z,10.98
2023-03-06T07:03:58.281Z,10.98
2023-03-06T07:07:00.256Z,10.40
2023-03-06T07:10:02.801Z,10.40
2023-03-06T07:13:04.454Z,16.48
2023-03-06T07:16:06.622Z,9.73
2023-03-06T07:19:08.682Z,12.32
2023-03-06T07:22:10.393Z,15.27
2023-03-06T07:25:12.598Z,12.88
2023-03-06T07:28:14.433Z,20.17
2023-03-06T07:31:16.211Z,11.35
2023-03-06T07:34:17.881Z,13.55
2023-03-06T07:37:19.876Z,16.12
2023-03-06T07:40:22.092Z,14.63
2023-03-06T07:43:23.746Z,18.20
2023-03-06T07:46:25.536Z,17.52
2023-03-06T07:49:27.185Z,20.25
2023-03-06T07:52:29.463Z,17.90
2023-03-06T07:55:31.128Z,19.87
2023-03-06T07:58:32.744Z,19.48
2023-03-06T08:01:36.262Z,14.65
2023-03-06T08:04:38.239Z,15.13
2023-03-06T08:07:39.937Z,18.37
2023-03-06T08:10:46.854Z,17.12
2023-03-06T08:13:49.384Z,14.60
2023-03-06T08:16:51.330Z,22.35
2023-03-06T08:19:52.970Z,12.65
2023-03-06T08:22:54.629Z,13.38
2023-03-06T08:26:01.119Z,16.98
2023-03-06T08:29:02.952Z,21.12
2023-03-06T08:32:04.922Z,14.38
2023-03-06T08:35:07.189Z,16.52
2023-03-06T08:38:08.864Z,18.10
2023-03-06T08:41:10.577Z,20.15
2023-03-06T08:44:12.916Z,17.10
2023-03-06T08:47:14.579Z,17.85
2023-03-06T08:50:16.400Z,14.07
2023-03-06T08:53:18.389Z,18.95
2023-03-06T08:56:20.020Z,15.45
2023-03-06T08:59:21.668Z,14.50
2023-03-06T09:02:23.417Z,19.33
2023-03-06T09:05:25.203Z,15.05
2023-03-06T09:08:26.852Z,17.25
2023-03-06T09:11:30.314Z,18.52
2023-03-06T09:14:32.186Z,18.52
2023-03-06T09:17:33.861Z,23.15
2023-03-06T09:20:35.621Z,17.60
2023-03-06T09:23:39.607Z,40.08
2023-03-06T09:26:46.206Z,17.77
2023-03-06T09:29:48.806Z,21.90
2023-03-06T09:32:50.441Z,25.77
2023-03-06T09:35:55.080Z,28.65
2023-03-06T09:38:56.890Z,15.00
2023-03-06T09:41:59.205Z,16.00
2023-03-06T09:45:04.713Z,18.73
2023-03-06T09:48:15.017Z,15.38
2023-03-06T09:51:18.830Z,14.98
2023-03-06T09:54:32.883Z,13.38
2023-03-06T09:57:42.782Z,20.10
2023-03-06T10:01:24.948Z,15.70
2023-03-06T10:04:42.640Z,14.77
2023-03-06T10:08:06.430Z,15.68
2023-03-06T10:11:10.835Z,18.45
2023-03-06T10:14:12.403Z,16.15
2023-03-06T10:17:20.822Z,15.05
2023-03-06T10:20:24.549Z,20.52
2023-03-06T10:23:49.144Z,14.48
2023-03-06T10:27:29.584Z,22.33
2023-03-06T10:30:44.739Z,23.17
2023-03-06T10:33:58.510Z,16.92
2023-03-06T10:37:11.842Z,13.65
2023-03-06T10:40:20.093Z,21.58
2023-03-06T10:43:23.741Z,18.15
2023-03-06T10:46:37.377Z,17.12
2023-03-06T10:49:39.119Z,17.15
2023-03-06T10:52:40.759Z,17.40
2023-03-06T10:55:52.184Z,16.55
2023-03-06T10:59:12.484Z,17.50
2023-03-06T11:02:26.057Z,18.23
2023-03-06T11:05:27.731Z,15.32
2023-03-06T11:08:30.772Z,18.58
2023-03-06T11:11:37.793Z,14.38
2023-03-06T11:14:39.767Z,16.98
2023-03-06T11:18:02.920Z,23.25
2023-03-06T11:21:23.398Z,16.95
2023-03-06T11:24:25.260Z,19.62
2023-03-06T11:27:34.601Z,15.98
2023-03-06T11:30:43.082Z,18.55
2023-03-06T11:33:50.586Z,16.40
2023-03-06T11:40:28.957Z,15.32
2023-03-06T11:44:00.832Z,18.27
2023-03-06T11:47:17.254Z,18.70
2023-03-06T11:50:25.637Z,22.85
2023-03-06T11:53:37.000Z,21.50
2023-03-06T11:56:51.780Z,17.35
2023-03-06T12:00:18.300Z,16.62
2023-03-06T12:03:45.056Z,16.77
2023-03-06T12:07:11.055Z,17.27
2023-03-06T12:10:15.585Z,19.80
2023-03-06T12:14:05.287Z,21.05
2023-03-06T12:17:19.397Z,21.80
2023-03-06T12:20:56.149Z,16.12
2023-03-06T12:24:29.819Z,21.25
2023-03-06T12:27:34.434Z,18.83
2023-03-06T12:31:20.254Z,16.80
2023-03-06T12:34:43.709Z,24.37
2023-03-06T12:38:00.050Z,18.00
2023-03-06T12:41:27.742Z,16.55
2023-03-06T12:45:20.649Z,16.00
2023-03-06T12:48:27.525Z,19.52
2023-03-06T12:51:30.209Z,16.37
2023-03-06T12:54:37.281Z,27.60
2023-03-06T12:57:38.945Z,15.82
2023-03-06T13:01:03.705Z,16.80
2023-03-06T13:04:05.696Z,17.60
2023-03-06T13:07:22.818Z,14.30
2023-03-06T13:10:35.835Z,17.17
2023-03-06T13:13:46.140Z,19.75
2023-03-06T13:16:47.833Z,14.70
2023-03-06T13:20:15.642Z,25.75
2023-03-06T13:23:29.612Z,26.70
2023-03-06T13:26:31.225Z,14.35
2023-03-06T13:29:35.911Z,18.92
2023-03-06T13:32:37.639Z,16.15
2023-03-06T13:35:42.297Z,10.63
2023-03-06T13:38:43.978Z,29.10
2023-03-06T13:41:59.306Z,24.70
2023-03-06T13:45:17.910Z,14.35
2023-03-06T13:48:46.224Z,11.73
2023-03-06T13:51:53.688Z,26.67
2023-03-06T13:55:24.177Z,20.12
2023-03-06T13:58:50.814Z,13.38
2023-03-06T14:02:10.067Z,17.00
2023-03-06T14:05:17.098Z,19.23
2023-03-06T14:08:22.692Z,17.98
2023-03-06T14:11:25.173Z,25.42
2023-03-06T14:14:36.044Z,20.45
2023-03-06T14:17:39.189Z,16.95
2023-03-06T14:20:48.488Z,23.12
2023-03-06T14:24:00.399Z,27.58
2023-03-06T14:27:02.698Z,28.35
2023-03-06T14:30:13.620Z,29.17
2023-03-06T14:33:44.501Z,27.40
2023-03-06T14:36:49.207Z,41.50
2023-03-06T14:39:51.867Z,48.13
2023-03-06T14:43:15.675Z,57.97
2023-03-06T14:46:22.480Z,40.38
2023-03-06T14:49:26.225Z,31.15
2023-03-06T14:52:28.341Z,37.55
2023-03-06T14:55:32.855Z,46.13
2023-03-06T14:58:40.386Z,34.67
2023-03-06T15:04:49.156Z,74.60
2023-03-06T15:07:52.812Z,18.25
2023-03-06T15:10:59.684Z,17.95
2023-03-06T15:14:03.872Z,23.23
2023-03-06T15:17:41.923Z,46.53
2023-03-06T15:20:50.215Z,71.93
2023-03-06T15:23:54.406Z,64.87
2023-03-06T15:27:07.091Z,124.87
2023-03-06T15:30:35.738Z,48.75
2023-03-06T15:33:37.746Z,28.20
2023-03-06T15:36:48.436Z,73.72
2023-03-06T15:40:04.403Z,81.72
2023-03-06T15:43:10.933Z,68.40
2023-03-06T15:46:13.321Z,66.95
2023-03-06T15:49:18.367Z,88.03
2023-03-06T15:52:23.199Z,81.18
2023-03-06T15:55:26.208Z,102.93
2023-03-06T15:58:31.669Z,96.20
2023-03-06T16:01:36.081Z,27.67
2023-03-06T16:04:38.696Z,22.83
2023-03-06T16:07:40.494Z,18.05
2023-03-06T16:10:45.090Z,20.80
2023-03-06T16:13:46.977Z,19.17
2023-03-06T16:16:49.706Z,19.12
2023-03-06T16:19:51.681Z,23.90
2023-03-06T16:22:56.705Z,21.85
2023-03-06T16:25:58.444Z,20.95
2023-03-06T16:29:00.950Z,21.62
2023-03-06T16:32:03.214Z,20.98
2023-03-06T16:35:05.432Z,20.95
2023-03-06T16:38:07.793Z,22.95
2023-03-06T16:41:12.139Z,23.27
2023-03-06T16:44:13.875Z,20.62
2023-03-06T16:47:17.271Z,26.90
2023-03-06T16:50:28.735Z,28.02
2023-03-06T16:53:30.683Z,34.20
2023-03-06T16:56:32.342Z,41.83
2023-03-06T16:59:34.194Z,46.67
2023-03-06T17:02:36.586Z,38.42
2023-03-06T17:05:39.399Z,27.55
2023-03-06T17:08:41.726Z,28.30
2023-03-06T17:11:50.054Z,29.52
2023-03-06T17:14:56.540Z,30.17
2023-03-06T17:17:58.330Z,67.22
2023-03-06T17:21:00.415Z,73.00
2023-03-06T17:24:04.144Z,29.05
2023-03-06T17:27:06.062Z,32.55
2023-03-06T17:30:09.206Z,24.30
2023-03-06T17:33:11.043Z,45.42
2023-03-06T17:36:16.100Z,30.37
2023-03-06T17:39:17.841Z,25.65
2023-03-06T17:42:19.709Z,28.27
2023-03-06T17:45:21.891Z,34.33
2023-03-06T17:48:24.043Z,25.50
2023-03-06T17:51:26.480Z,29.23
2023-03-06T17:54:30.196Z,29.70
2023-03-06T17:57:32.389Z,32.20
2023-03-06T18:00:34.409Z,25.25
2023-03-06T18:03:38.499Z,66.65
2023-03-06T18:06:41.005Z,45.40
2023-03-06T18:09:43.596Z,40.72
2023-03-06T18:12:47.538Z,118.43
2023-03-06T18:15:49.763Z,37.67
2023-03-06T18:18:56.528Z,27.23
2023-03-06T18:21:58.724Z,22.27
2023-03-06T18:25:01.540Z,28.33
2023-03-06T18:28:04.040Z,29.30
2023-03-06T18:31:09.232Z,32.50
2023-03-06T18:34:14.182Z,39.58
2023-03-06T18:37:17.338Z,29.70
2023-03-06T18:40:20.304Z,22.00
2023-03-06T18:43:24.178Z,31.65
2023-03-06T18:46:33.828Z,28.77
2023-03-06T18:49:37.471Z,26.40
2023-03-06T18:52:41.238Z,23.67
2023-03-06T18:55:51.740Z,23.62
2023-03-06T18:58:54.446Z,26.10
2023-03-06T19:01:57.811Z,26.48
2023-03-06T19:05:00.190Z,28.55
2023-03-06T19:08:05.718Z,20.17
2023-03-06T19:11:11.989Z,20.90
2023-03-06T19:14:15.330Z,23.15
2023-03-06T19:17:18.318Z,22.15
2023-03-06T19:20:20.686Z,18.08
2023-03-06T19:23:24.408Z,29.12
2023-03-06T19:26:29.859Z,26.37
2023-03-06T19:29:34.505Z,33.60
2023-03-06T19:32:37.091Z,23.45
2023-03-06T19:35:39.748Z,26.37
2023-03-06T19:38:42.817Z,25.80
2023-03-06T19:41:51.251Z,20.83
2023-03-06T19:48:01.155Z,34.50
2023-03-06T19:51:05.164Z,37.10
2023-03-06T19:54:07.812Z,32.35
2023-03-06T19:57:11.716Z,29.98
2023-03-06T20:00:14.991Z,33.15
2023-03-06T20:03:16.903Z,26.30
2023-03-06T20:06:21.079Z,26.50
2023-03-06T20:09:24.700Z,20.40
2023-03-06T20:12:29.208Z,26.95
2023-03-06T20:15:35.430Z,24.92
2023-03-06T20:18:39.235Z,26.85
2023-03-06T20:21:41.477Z,25.65
2023-03-06T20:24:44.059Z,24.55
2023-03-06T20:27:48.221Z,24.80
2023-03-06T20:30:51.073Z,24.90
2023-03-06T20:33:54.976Z,25.62
2023-03-06T20:36:58.556Z,27.20
2023-03-06T20:40:00.991Z,36.92
2023-03-06T20:43:03.764Z,25.27
2023-03-06T20:46:07.388Z,28.70
2023-03-06T20:49:11.648Z,25.83
2023-03-06T20:52:14.362Z,28.87
2023-03-06T20:55:16.927Z,27.00
2023-03-06T20:58:19.406Z,24.20
2023-03-06T21:01:27.486Z,26.42
2023-03-06T21:04:29.870Z,28.42
2023-03-06T21:07:32.000Z,32.15
2023-03-06T21:10:34.158Z,44.78
2023-03-06T21:13:36.031Z,35.28
2023-03-06T21:16:39.318Z,27.17
2023-03-06T21:19:42.038Z,37.22
2023-03-06T21:22:43.832Z,36.55
2023-03-06T21:25:49.706Z,55.70
2023-03-06T21:28:52.246Z,32.92
2023-03-06T21:31:53.942Z,30.08
2023-03-06T21:34:56.158Z,28.35
2023-03-06T21:37:57.892Z,26.87
2023-03-06T21:41:19.191Z,30.02
2023-03-06T21:44:21.112Z,23.90
2023-03-06T21:47:22.756Z,30.35
2023-03-06T21:50:25.078Z,33.50
2023-03-06T21:53:26.715Z,42.55
2023-03-06T21:56:28.574Z,39.78
2023-03-06T21:59:30.290Z,36.97
2023-03-06T22:02:31.907Z,47.17
2023-03-06T22:05:33.583Z,44.60
2023-03-06T22:08:35.233Z,36.22
2023-03-06T22:11:37.445Z,33.92
2023-03-06T22:14:39.169Z,36.60
2023-03-06T22:17:41.681Z,39.00
2023-03-06T22:20:43.421Z,39.80
2023-03-06T22:23:52.609Z,38.10
2023-03-06T22:26:54.237Z,33.97
2023-03-06T22:29:56.091Z,34.95
2023-03-06T22:32:57.749Z,28.98
2023-03-06T22:36:02.736Z,31.98
2023-03-06T22:39:04.499Z,40.08
2023-03-06T22:42:06.221Z,34.78
2023-03-06T22:45:08.441Z,42.92
2023-03-06T22:48:11.284Z,39.75
2023-03-06T22:51:18.889Z,40.05
2023-03-06T22:54:20.568Z,36.97
2023-03-06T22:57:22.236Z,44.45
2023-03-06T23:00:23.890Z,40.05
2023-03-06T23:03:25.523Z,39.45
2023-03-06T23:06:31.211Z,43.05
2023-03-06T23:09:33.172Z,36.95
2023-03-06T23:12:34.864Z,39.17
2023-03-06T23:15:37.027Z,44.60
2023-03-06T23:18:39.923Z,36.67
2023-03-06T23:21:41.848Z,41.78
2023-03-06T23:24:43.492Z,45.12
2023-03-06T23:27:45.130Z,41.65
2023-03-06T23:30:46.838Z,36.63
2023-03-06T23:33:48.655Z,37.35
2023-03-06T23:36:50.481Z,36.63
2023-03-06T23:39:52.139Z,34.80
2023-03-06T23:42:53.764Z,40.63
2023-03-06T23:45:56.063Z,41.53
2023-03-06T23:48:57.707Z,34.75
2023-03-06T23:51:59.654Z,42.58
2023-03-06T23:55:01.349Z,44.75
2023-03-06T23:58:02.996Z,36.08
